sensor_id;sensor_type;location;lat;lon;timestamp;pressure;altitude;pressure_sealevel;temperature;humidity
25947;BME280;13745;51.470;9.894;2023-02-04T00:01:48;100378.84;;;7.63;77.49
25947;BME280;13745;51.470;9.894;2023-02-04T00:04:33;100372.75;;;7.60;77.65
25947;BME280;13745;51.470;9.894;2023-02-04T00:07:18;100384.78;;;7.60;78.15
25947;BME280;13745;51.470;9.894;2023-02-04T00:10:05;100383.00;;;7.54;78.13
25947;BME280;13745;51.470;9.894;2023-02-04T00:12:50;100382.97;;;7.53;78.02
25947;BME280;13745;51.470;9.894;2023-02-04T00:15:35;100379.47;;;7.48;77.87
25947;BME280;13745;51.470;9.894;2023-02-04T00:18:21;100388.03;;;7.45;78.16
25947;BME280;13745;51.470;9.894;2023-02-04T00:21:06;100382.81;;;7.42;78.38
25947;BME280;13745;51.470;9.894;2023-02-04T00:23:51;100369.88;;;7.39;78.12
25947;BME280;13745;51.470;9.894;2023-02-04T00:26:38;100374.91;;;7.31;78.51
25947;BME280;13745;51.470;9.894;2023-02-04T00:29:23;100373.09;;;7.27;77.90
25947;BME280;13745;51.470;9.894;2023-02-04T00:32:10;100392.00;;;7.25;77.91
25947;BME280;13745;51.470;9.894;2023-02-04T00:34:56;100403.13;;;7.22;77.78
25947;BME280;13745;51.470;9.894;2023-02-04T00:37:42;100423.69;;;7.19;78.10
25947;BME280;13745;51.470;9.894;2023-02-04T00:40:27;100434.00;;;7.19;77.95
25947;BME280;13745;51.470;9.894;2023-02-04T00:43:12;100438.28;;;7.19;77.92
25947;BME280;13745;51.470;9.894;2023-02-04T00:45:57;100433.09;;;7.17;77.88
25947;BME280;13745;51.470;9.894;2023-02-04T00:48:42;100440.00;;;7.18;78.45
25947;BME280;13745;51.470;9.894;2023-02-04T00:51:28;100436.56;;;7.19;78.05
25947;BME280;13745;51.470;9.894;2023-02-04T00:54:13;100448.66;;;7.22;78.28
25947;BME280;13745;51.470;9.894;2023-02-04T00:56:59;100446.13;;;7.23;78.07
25947;BME280;13745;51.470;9.894;2023-02-04T00:59:44;100453.03;;;7.26;77.68
25947;BME280;13745;51.470;9.894;2023-02-04T01:02:29;100446.16;;;7.26;78.12
25947;BME280;13745;51.470;9.894;2023-02-04T01:05:15;100447.88;;;7.27;78.11
25947;BME280;13745;51.470;9.894;2023-02-04T01:08:03;100449.66;;;7.28;77.71
25947;BME280;13745;51.470;9.894;2023-02-04T01:10:48;100452.28;;;7.31;77.93
25947;BME280;13745;51.470;9.894;2023-02-04T01:13:33;100457.44;;;7.33;78.06
25947;BME280;13745;51.470;9.894;2023-02-04T01:16:18;100459.19;;;7.36;77.61
25947;BME280;13745;51.470;9.894;2023-02-04T01:19:03;100472.16;;;7.37;77.92
25947;BME280;13745;51.470;9.894;2023-02-04T01:21:48;100486.81;;;7.40;77.83
25947;BME280;13745;51.470;9.894;2023-02-04T01:24:34;100504.91;;;7.43;77.76
25947;BME280;13745;51.470;9.894;2023-02-04T01:27:38;100508.31;;;7.42;78.19
25947;BME280;13745;51.470;9.894;2023-02-04T01:30:23;100521.22;;;7.42;78.53
25947;BME280;13745;51.470;9.894;2023-02-04T01:33:08;100520.34;;;7.41;78.48
25947;BME280;13745;51.470;9.894;2023-02-04T01:35:53;100525.50;;;7.40;78.37
25947;BME280;13745;51.470;9.894;2023-02-04T01:38:38;100534.06;;;7.39;78.78
25947;BME280;13745;51.470;9.894;2023-02-04T01:41:25;100542.59;;;7.36;79.09
25947;BME280;13745;51.470;9.894;2023-02-04T01:44:10;100553.66;;;7.29;79.22
25947;BME280;13745;51.470;9.894;2023-02-04T01:46:55;100563.00;;;7.22;79.47
25947;BME280;13745;51.470;9.894;2023-02-04T01:49:41;100570.59;;;7.16;80.07
25947;BME280;13745;51.470;9.894;2023-02-04T01:52:27;100569.59;;;7.10;80.29
25947;BME280;13745;51.470;9.894;2023-02-04T01:55:16;100572.16;;;7.08;80.14
25947;BME280;13745;51.470;9.894;2023-02-04T01:58:03;100585.84;;;7.04;80.49
25947;BME280;13745;51.470;9.894;2023-02-04T02:00:48;100586.59;;;7.00;80.88
25947;BME280;13745;51.470;9.894;2023-02-04T02:03:33;100588.19;;;6.95;80.52
25947;BME280;13745;51.470;9.894;2023-02-04T02:06:18;100598.59;;;6.98;81.37
25947;BME280;13745;51.470;9.894;2023-02-04T02:09:04;100594.34;;;7.01;81.20
25947;BME280;13745;51.470;9.894;2023-02-04T02:11:49;100600.47;;;7.05;80.74
25947;BME280;13745;51.470;9.894;2023-02-04T02:14:36;100598.72;;;7.04;80.98
25947;BME280;13745;51.470;9.894;2023-02-04T02:17:21;100608.25;;;7.08;81.07
25947;BME280;13745;51.470;9.894;2023-02-04T02:20:08;100611.63;;;7.06;80.99
25947;BME280;13745;51.470;9.894;2023-02-04T02:23:01;100618.41;;;7.00;81.26
25947;BME280;13745;51.470;9.894;2023-02-04T02:25:49;100608.06;;;6.99;81.33
25947;BME280;13745;51.470;9.894;2023-02-04T02:28:34;100617.56;;;7.01;80.94
25947;BME280;13745;51.470;9.894;2023-02-04T02:31:21;100619.97;;;6.94;81.04
25947;BME280;13745;51.470;9.894;2023-02-04T02:34:06;100631.94;;;6.90;80.83
25947;BME280;13745;51.470;9.894;2023-02-04T02:36:53;100627.63;;;6.89;81.14
25947;BME280;13745;51.470;9.894;2023-02-04T02:39:43;100624.91;;;6.83;80.87
25947;BME280;13745;51.470;9.894;2023-02-04T02:42:31;100627.44;;;6.82;80.62
25947;BME280;13745;51.470;9.894;2023-02-04T02:45:21;100625.63;;;6.78;81.35
25947;BME280;13745;51.470;9.894;2023-02-04T02:48:08;100626.38;;;6.72;81.31
25947;BME280;13745;51.470;9.894;2023-02-04T02:50:54;100632.25;;;6.66;81.41
25947;BME280;13745;51.470;9.894;2023-02-04T02:53:39;100637.28;;;6.62;81.15
25947;BME280;13745;51.470;9.894;2023-02-04T02:56:25;100644.94;;;6.59;81.33
25947;BME280;13745;51.470;9.894;2023-02-04T02:59:13;100647.50;;;6.57;81.12
25947;BME280;13745;51.470;9.894;2023-02-04T03:02:00;100650.91;;;6.56;81.47
25947;BME280;13745;51.470;9.894;2023-02-04T03:04:54;100656.75;;;6.49;81.41
25947;BME280;13745;51.470;9.894;2023-02-04T03:07:43;100665.22;;;6.45;81.31
25947;BME280;13745;51.470;9.894;2023-02-04T03:10:28;100672.91;;;6.43;81.73
25947;BME280;13745;51.470;9.894;2023-02-04T03:13:14;100677.19;;;6.43;81.66
25947;BME280;13745;51.470;9.894;2023-02-04T03:16:02;100693.50;;;6.42;81.25
25947;BME280;13745;51.470;9.894;2023-02-04T03:18:48;100696.09;;;6.43;81.47
25947;BME280;13745;51.470;9.894;2023-02-04T03:21:34;100702.94;;;6.43;81.33
25947;BME280;13745;51.470;9.894;2023-02-04T03:24:20;100716.63;;;6.40;81.43
25947;BME280;13745;51.470;9.894;2023-02-04T03:27:06;100727.78;;;6.39;81.64
25947;BME280;13745;51.470;9.894;2023-02-04T03:29:51;100730.25;;;6.36;81.56
25947;BME280;13745;51.470;9.894;2023-02-04T03:32:37;100740.47;;;6.33;81.71
25947;BME280;13745;51.470;9.894;2023-02-04T03:35:24;100740.41;;;6.30;81.13
25947;BME280;13745;51.470;9.894;2023-02-04T03:38:09;100749.84;;;6.30;81.10
25947;BME280;13745;51.470;9.894;2023-02-04T03:40:54;100755.75;;;6.27;81.17
25947;BME280;13745;51.470;9.894;2023-02-04T03:43:39;100761.72;;;6.25;81.36
25947;BME280;13745;51.470;9.894;2023-02-04T03:46:24;100768.53;;;6.23;81.47
25947;BME280;13745;51.470;9.894;2023-02-04T03:49:11;100769.41;;;6.23;81.06
25947;BME280;13745;51.470;9.894;2023-02-04T03:51:56;100771.09;;;6.23;81.30
25947;BME280;13745;51.470;9.894;2023-02-04T03:54:42;100771.94;;;6.22;81.61
25947;BME280;13745;51.470;9.894;2023-02-04T03:57:26;100775.31;;;6.20;81.14
25947;BME280;13745;51.470;9.894;2023-02-04T04:00:13;100778.69;;;6.18;81.60
25947;BME280;13745;51.470;9.894;2023-02-04T04:02:58;100793.22;;;6.16;81.35
25947;BME280;13745;51.470;9.894;2023-02-04T04:05:44;100794.09;;;6.16;81.17
25947;BME280;13745;51.470;9.894;2023-02-04T04:08:29;100798.44;;;6.19;81.54
25947;BME280;13745;51.470;9.894;2023-02-04T04:11:14;100802.69;;;6.17;81.28
25947;BME280;13745;51.470;9.894;2023-02-04T04:13:59;100805.19;;;6.14;81.86
25947;BME280;13745;51.470;9.894;2023-02-04T04:16:44;100830.72;;;6.06;81.97
25947;BME280;13745;51.470;9.894;2023-02-04T04:19:30;100843.94;;;5.90;82.20
25947;BME280;13745;51.470;9.894;2023-02-04T04:22:17;100852.97;;;5.77;82.39
25947;BME280;13745;51.470;9.894;2023-02-04T04:25:02;100855.47;;;5.74;82.00
25947;BME280;13745;51.470;9.894;2023-02-04T04:27:48;100863.16;;;5.73;82.03
25947;BME280;13745;51.470;9.894;2023-02-04T04:30:32;100872.41;;;5.68;81.47
25947;BME280;13745;51.470;9.894;2023-02-04T04:33:17;100874.88;;;5.63;81.68
25947;BME280;13745;51.470;9.894;2023-02-04T04:36:03;100876.44;;;5.59;81.66
25947;BME280;13745;51.470;9.894;2023-02-04T04:38:49;100874.63;;;5.55;81.51
25947;BME280;13745;51.470;9.894;2023-02-04T04:41:34;100885.72;;;5.54;81.99
25947;BME280;13745;51.470;9.894;2023-02-04T04:44:19;100892.47;;;5.51;81.77
25947;BME280;13745;51.470;9.894;2023-02-04T04:47:05;100897.56;;;5.49;82.32
25947;BME280;13745;51.470;9.894;2023-02-04T04:49:50;100909.59;;;5.50;81.60
25947;BME280;13745;51.470;9.894;2023-02-04T04:52:35;100904.38;;;5.47;81.56
25947;BME280;13745;51.470;9.894;2023-02-04T04:55:21;100913.91;;;5.51;82.00
25947;BME280;13745;51.470;9.894;2023-02-04T04:58:07;100922.50;;;5.52;81.77
25947;BME280;13745;51.470;9.894;2023-02-04T05:00:52;100923.38;;;5.52;81.77
25947;BME280;13745;51.470;9.894;2023-02-04T05:03:37;100932.75;;;5.50;81.53
25947;BME280;13745;51.470;9.894;2023-02-04T05:06:22;100935.09;;;5.44;82.23
25947;BME280;13745;51.470;9.894;2023-02-04T05:09:08;100940.06;;;5.38;81.94
25947;BME280;13745;51.470;9.894;2023-02-04T05:11:54;100940.78;;;5.34;82.27
25947;BME280;13745;51.470;9.894;2023-02-04T05:14:39;100950.19;;;5.33;81.98
25947;BME280;13745;51.470;9.894;2023-02-04T05:17:24;100956.97;;;5.31;82.15
25947;BME280;13745;51.470;9.894;2023-02-04T05:20:10;100955.28;;;5.32;82.10
25947;BME280;13745;51.470;9.894;2023-02-04T05:22:55;100955.28;;;5.32;82.16
25947;BME280;13745;51.470;9.894;2023-02-04T05:25:43;100955.16;;;5.29;82.34
25947;BME280;13745;51.470;9.894;2023-02-04T05:28:30;100946.53;;;5.27;82.10
25947;BME280;13745;51.470;9.894;2023-02-04T05:31:16;100957.69;;;5.27;82.08
25947;BME280;13745;51.470;9.894;2023-02-04T05:34:01;100961.88;;;5.24;82.24
25947;BME280;13745;51.470;9.894;2023-02-04T05:36:46;100963.34;;;5.17;82.07
25947;BME280;13745;51.470;9.894;2023-02-04T05:39:30;100969.16;;;5.12;82.07
25947;BME280;13745;51.470;9.894;2023-02-04T05:42:15;100969.06;;;5.08;81.92
25947;BME280;13745;51.470;9.894;2023-02-04T05:45:02;100976.53;;;5.02;82.08
25947;BME280;13745;51.470;9.894;2023-02-04T05:47:47;100989.28;;;4.99;82.41
25947;BME280;13745;51.470;9.894;2023-02-04T05:50:32;100992.56;;;4.95;82.25
25947;BME280;13745;51.470;9.894;2023-02-04T05:53:26;101000.44;;;5.00;82.46
25947;BME280;13745;51.470;9.894;2023-02-04T05:56:11;101000.53;;;5.03;82.69
25947;BME280;13745;51.470;9.894;2023-02-04T05:58:56;101005.81;;;5.06;82.03
25947;BME280;13745;51.470;9.894;2023-02-04T06:01:42;101014.25;;;5.03;82.02
25947;BME280;13745;51.470;9.894;2023-02-04T06:04:28;101017.59;;;5.01;82.38
25947;BME280;13745;51.470;9.894;2023-02-04T06:07:12;101017.50;;;4.98;82.10
25947;BME280;13745;51.470;9.894;2023-02-04T06:09:57;101024.38;;;4.99;82.37
25947;BME280;13745;51.470;9.894;2023-02-04T06:12:42;101017.56;;;4.99;81.91
25947;BME280;13745;51.470;9.894;2023-02-04T06:15:27;101008.09;;;4.98;81.88
25947;BME280;13745;51.470;9.894;2023-02-04T06:18:14;101021.78;;;4.97;82.25
25947;BME280;13745;51.470;9.894;2023-02-04T06:20:58;101023.47;;;4.97;81.85
25947;BME280;13745;51.470;9.894;2023-02-04T06:23:47;101041.38;;;4.95;81.74
25947;BME280;13745;51.470;9.894;2023-02-04T06:26:32;101034.38;;;4.91;81.75
25947;BME280;13745;51.470;9.894;2023-02-04T06:29:17;101035.94;;;4.88;81.87
25947;BME280;13745;51.470;9.894;2023-02-04T06:32:02;101037.66;;;4.87;81.87
25947;BME280;13745;51.470;9.894;2023-02-04T06:34:48;101035.84;;;4.85;81.78
25947;BME280;13745;51.470;9.894;2023-02-04T06:37:34;101040.13;;;4.84;81.57
25947;BME280;13745;51.470;9.894;2023-02-04T06:40:19;101052.03;;;4.82;82.08
25947;BME280;13745;51.470;9.894;2023-02-04T06:43:04;101061.38;;;4.80;81.60
25947;BME280;13745;51.470;9.894;2023-02-04T06:45:49;101058.75;;;4.78;81.62
25947;BME280;13745;51.470;9.894;2023-02-04T06:48:34;101060.38;;;4.76;81.84
25947;BME280;13745;51.470;9.894;2023-02-04T06:51:20;101064.53;;;4.73;82.10
25947;BME280;13745;51.470;9.894;2023-02-04T06:54:06;101079.97;;;4.73;82.10
25947;BME280;13745;51.470;9.894;2023-02-04T06:56:51;101076.44;;;4.71;81.55
25947;BME280;13745;51.470;9.894;2023-02-04T06:59:37;101089.97;;;4.67;81.62
25947;BME280;13745;51.470;9.894;2023-02-04T07:02:22;101092.44;;;4.64;81.63
25947;BME280;13745;51.470;9.894;2023-02-04T07:05:07;101086.25;;;4.59;81.88
25947;BME280;13745;51.470;9.894;2023-02-04T07:07:55;101092.06;;;4.55;81.39
25947;BME280;13745;51.470;9.894;2023-02-04T07:10:40;101099.72;;;4.53;81.91
25947;BME280;13745;51.470;9.894;2023-02-04T07:13:25;101094.59;;;4.53;81.84
25947;BME280;13745;51.470;9.894;2023-02-04T07:16:10;101106.44;;;4.49;81.37
25947;BME280;13745;51.470;9.894;2023-02-04T07:18:55;101113.22;;;4.47;81.47
25947;BME280;13745;51.470;9.894;2023-02-04T07:21:40;101119.03;;;4.43;81.54
25947;BME280;13745;51.470;9.894;2023-02-04T07:24:26;101123.09;;;4.38;81.77
25947;BME280;13745;51.470;9.894;2023-02-04T07:27:11;101124.09;;;4.42;81.31
25947;BME280;13745;51.470;9.894;2023-02-04T07:29:56;101119.91;;;4.44;81.26
25947;BME280;13745;51.470;9.894;2023-02-04T07:32:41;101123.22;;;4.41;81.56
25947;BME280;13745;51.470;9.894;2023-02-04T07:35:26;101133.50;;;4.41;81.54
25947;BME280;13745;51.470;9.894;2023-02-04T07:38:11;101139.56;;;4.43;81.63
25947;BME280;13745;51.470;9.894;2023-02-04T07:40:57;101150.75;;;4.45;81.20
25947;BME280;13745;51.470;9.894;2023-02-04T07:43:42;101149.22;;;4.49;81.49
25947;BME280;13745;51.470;9.894;2023-02-04T07:46:27;101154.41;;;4.50;81.17
25947;BME280;13745;51.470;9.894;2023-02-04T07:49:12;101162.31;;;4.55;81.18
25947;BME280;13745;51.470;9.894;2023-02-04T07:51:57;101165.09;;;4.61;81.13
25947;BME280;13745;51.470;9.894;2023-02-04T07:54:42;101160.09;;;4.64;80.96
25947;BME280;13745;51.470;9.894;2023-02-04T07:57:29;101156.69;;;4.65;80.94
25947;BME280;13745;51.470;9.894;2023-02-04T08:00:15;101169.75;;;4.71;81.30
25947;BME280;13745;51.470;9.894;2023-02-04T08:03:00;101172.47;;;4.74;81.21
25947;BME280;13745;51.470;9.894;2023-02-04T08:05:44;101167.50;;;4.79;81.47
25947;BME280;13745;51.470;9.894;2023-02-04T08:08:29;101166.81;;;4.83;80.98
25947;BME280;13745;51.470;9.894;2023-02-04T08:11:14;101170.59;;;4.93;81.41
25947;BME280;13745;51.470;9.894;2023-02-04T08:14:00;101170.06;;;5.01;81.27
25947;BME280;13745;51.470;9.894;2023-02-04T08:16:45;101183.22;;;5.09;81.14
25947;BME280;13745;51.470;9.894;2023-02-04T08:19:30;101188.41;;;5.11;80.76
25947;BME280;13745;51.470;9.894;2023-02-04T08:22:15;101191.16;;;5.15;80.80
25947;BME280;13745;51.470;9.894;2023-02-04T08:25:00;101198.94;;;5.17;81.28
25947;BME280;13745;51.470;9.894;2023-02-04T08:27:45;101197.56;;;5.26;81.31
25947;BME280;13745;51.470;9.894;2023-02-04T08:30:31;101195.28;;;5.34;81.10
25947;BME280;13745;51.470;9.894;2023-02-04T08:33:16;101194.75;;;5.43;81.00
25947;BME280;13745;51.470;9.894;2023-02-04T08:36:01;101200.09;;;5.47;80.53
25947;BME280;13745;51.470;9.894;2023-02-04T08:38:46;101199.31;;;5.50;81.16
25947;BME280;13745;51.470;9.894;2023-02-04T08:41:31;101205.44;;;5.53;80.58
25947;BME280;13745;51.470;9.894;2023-02-04T08:44:17;101204.69;;;5.56;80.44
25947;BME280;13745;51.470;9.894;2023-02-04T08:47:03;101212.44;;;5.57;80.69
25947;BME280;13745;51.470;9.894;2023-02-04T08:49:49;101212.50;;;5.59;80.85
25947;BME280;13745;51.470;9.894;2023-02-04T08:52:33;101215.94;;;5.59;80.57
25947;BME280;13745;51.470;9.894;2023-02-04T08:55:19;101215.34;;;5.67;80.22
25947;BME280;13745;51.470;9.894;2023-02-04T08:58:04;101213.38;;;5.83;80.03
25947;BME280;13745;51.470;9.894;2023-02-04T09:00:49;101205.06;;;6.14;79.42
25947;BME280;13745;51.470;9.894;2023-02-04T09:03:35;101207.44;;;6.61;78.73
25947;BME280;13745;51.470;9.894;2023-02-04T09:06:20;101221.84;;;7.37;77.92
25947;BME280;13745;51.470;9.894;2023-02-04T09:09:05;101215.16;;;8.71;76.25
25947;BME280;13745;51.470;9.894;2023-02-04T09:11:50;101208.47;;;10.04;75.00
25947;BME280;13745;51.470;9.894;2023-02-04T09:14:35;101212.09;;;11.18;73.78
25947;BME280;13745;51.470;9.894;2023-02-04T09:17:20;101221.91;;;12.15;72.57
25947;BME280;13745;51.470;9.894;2023-02-04T09:20:08;101220.78;;;12.83;71.28
25947;BME280;13745;51.470;9.894;2023-02-04T09:22:54;101220.97;;;13.10;70.35
25947;BME280;13745;51.470;9.894;2023-02-04T09:25:39;101219.00;;;12.76;69.70
25947;BME280;13745;51.470;9.894;2023-02-04T09:28:25;101223.06;;;12.45;69.65
25947;BME280;13745;51.470;9.894;2023-02-04T09:31:10;101224.09;;;12.63;68.68
25947;BME280;13745;51.470;9.894;2023-02-04T09:33:55;101226.88;;;12.83;67.84
25947;BME280;13745;51.470;9.894;2023-02-04T09:36:41;101230.09;;;14.15;64.95
25947;BME280;13745;51.470;9.894;2023-02-04T09:39:27;101230.97;;;15.22;61.84
25947;BME280;13745;51.470;9.894;2023-02-04T09:42:12;101229.81;;;16.01;59.90
25947;BME280;13745;51.470;9.894;2023-02-04T09:44:58;101230.09;;;16.85;58.26
25947;BME280;13745;51.470;9.894;2023-02-04T09:47:46;101232.38;;;17.96;56.52
25947;BME280;13745;51.470;9.894;2023-02-04T09:50:31;101238.72;;;18.95;54.86
25947;BME280;13745;51.470;9.894;2023-02-04T09:53:20;101234.00;;;19.99;53.58
25947;BME280;13745;51.470;9.894;2023-02-04T09:56:08;101227.75;;;20.79;52.48
25947;BME280;13745;51.470;9.894;2023-02-04T09:58:53;101241.66;;;22.11;50.18
25947;BME280;13745;51.470;9.894;2023-02-04T10:01:38;101236.75;;;23.07;48.38
25947;BME280;13745;51.470;9.894;2023-02-04T10:04:24;101242.53;;;23.18;47.73
25947;BME280;13745;51.470;9.894;2023-02-04T10:07:11;101235.50;;;23.67;46.69
25947;BME280;13745;51.470;9.894;2023-02-04T10:09:58;101245.41;;;21.73;47.74
25947;BME280;13745;51.470;9.894;2023-02-04T10:12:43;101252.75;;;20.24;48.80
25947;BME280;13745;51.470;9.894;2023-02-04T10:15:29;101257.50;;;18.72;50.80
25947;BME280;13745;51.470;9.894;2023-02-04T10:18:20;101257.53;;;18.09;51.07
25947;BME280;13745;51.470;9.894;2023-02-04T10:21:13;101259.47;;;17.95;51.03
25947;BME280;13745;51.470;9.894;2023-02-04T10:24:02;101264.44;;;17.44;51.79
25947;BME280;13745;51.470;9.894;2023-02-04T10:26:50;101268.34;;;17.06;52.12
25947;BME280;13745;51.470;9.894;2023-02-04T10:29:36;101263.25;;;16.87;52.62
25947;BME280;13745;51.470;9.894;2023-02-04T10:32:26;101276.69;;;16.42;51.03
25947;BME280;13745;51.470;9.894;2023-02-04T10:35:14;101275.34;;;15.43;51.93
25947;BME280;13745;51.470;9.894;2023-02-04T10:38:04;101282.38;;;14.54;53.23
25947;BME280;13745;51.470;9.894;2023-02-04T10:40:59;101282.16;;;13.87;54.26
25947;BME280;13745;51.470;9.894;2023-02-04T10:43:46;101284.56;;;13.41;55.10
25947;BME280;13745;51.470;9.894;2023-02-04T10:46:31;101284.38;;;13.17;55.55
25947;BME280;13745;51.470;9.894;2023-02-04T10:49:18;101294.50;;;12.82;55.58
25947;BME280;13745;51.470;9.894;2023-02-04T10:52:14;101298.41;;;12.34;56.45
25947;BME280;13745;51.470;9.894;2023-02-04T10:55:01;101310.88;;;11.90;56.90
25947;BME280;13745;51.470;9.894;2023-02-04T10:57:47;101315.72;;;11.65;57.49
25947;BME280;13745;51.470;9.894;2023-02-04T11:00:34;101323.13;;;11.38;58.39
25947;BME280;13745;51.470;9.894;2023-02-04T11:03:22;101329.56;;;11.08;58.45
25947;BME280;13745;51.470;9.894;2023-02-04T11:06:10;101336.94;;;10.84;58.33
25947;BME280;13745;51.470;9.894;2023-02-04T11:08:57;101327.34;;;10.77;58.83
25947;BME280;13745;51.470;9.894;2023-02-04T11:11:47;101335.03;;;10.74;59.02
25947;BME280;13745;51.470;9.894;2023-02-04T11:14:32;101332.25;;;10.63;59.26
25947;BME280;13745;51.470;9.894;2023-02-04T11:17:20;101333.25;;;10.68;59.30
25947;BME280;13745;51.470;9.894;2023-02-04T11:20:15;101337.06;;;10.91;58.84
25947;BME280;13745;51.470;9.894;2023-02-04T11:26:15;101322.00;;;11.22;58.11
25947;BME280;13745;51.470;9.894;2023-02-04T11:29:23;101327.47;;;11.39;58.04
25947;BME280;13745;51.470;9.894;2023-02-04T11:32:29;101327.47;;;12.81;56.08
25947;BME280;13745;51.470;9.894;2023-02-04T11:35:26;101318.03;;;15.49;52.70
25947;BME280;13745;51.470;9.894;2023-02-04T11:38:21;101322.00;;;16.46;51.30
25947;BME280;13745;51.470;9.894;2023-02-04T11:41:14;101324.81;;;16.17;51.82
25947;BME280;13745;51.470;9.894;2023-02-04T11:44:00;101331.94;;;15.72;52.23
25947;BME280;13745;51.470;9.894;2023-02-04T11:46:49;101333.75;;;15.00;52.60
25947;BME280;13745;51.470;9.894;2023-02-04T11:49:35;101327.53;;;14.33;53.13
25947;BME280;13745;51.470;9.894;2023-02-04T11:52:21;101332.53;;;13.82;54.21
25947;BME280;13745;51.470;9.894;2023-02-04T11:55:08;101328.00;;;13.48;54.16
25947;BME280;13745;51.470;9.894;2023-02-04T11:57:55;101333.09;;;13.27;54.30
25947;BME280;13745;51.470;9.894;2023-02-04T12:00:41;101329.41;;;13.04;54.32
25947;BME280;13745;51.470;9.894;2023-02-04T12:03:28;101330.19;;;12.92;55.11
25947;BME280;13745;51.470;9.894;2023-02-04T12:06:21;101331.75;;;12.75;55.51
25947;BME280;13745;51.470;9.894;2023-02-04T12:09:07;101331.03;;;12.91;55.39
25947;BME280;13745;51.470;9.894;2023-02-04T12:11:54;101326.81;;;13.05;54.78
25947;BME280;13745;51.470;9.894;2023-02-04T12:14:40;101334.59;;;13.05;54.68
25947;BME280;13745;51.470;9.894;2023-02-04T12:17:25;101337.13;;;12.94;55.05
25947;BME280;13745;51.470;9.894;2023-02-04T12:20:10;101340.56;;;12.90;54.83
25947;BME280;13745;51.470;9.894;2023-02-04T12:22:57;101341.16;;;12.60;55.02
25947;BME280;13745;51.470;9.894;2023-02-04T12:25:42;101341.78;;;12.41;55.11
25947;BME280;13745;51.470;9.894;2023-02-04T12:28:27;101343.47;;;12.34;55.45
25947;BME280;13745;51.470;9.894;2023-02-04T12:31:12;101336.75;;;12.55;55.26
25947;BME280;13745;51.470;9.894;2023-02-04T12:33:57;101337.06;;;12.84;54.82
25947;BME280;13745;51.470;9.894;2023-02-04T12:36:43;101328.59;;;13.14;54.26
25947;BME280;13745;51.470;9.894;2023-02-04T12:39:29;101337.34;;;13.19;53.89
25947;BME280;13745;51.470;9.894;2023-02-04T12:42:14;101350.78;;;12.72;54.08
25947;BME280;13745;51.470;9.894;2023-02-04T12:44:59;101356.19;;;12.10;54.76
25947;BME280;13745;51.470;9.894;2023-02-04T12:47:45;101355.72;;;11.76;55.33
25947;BME280;13745;51.470;9.894;2023-02-04T12:50:30;101361.63;;;11.66;55.75
25947;BME280;13745;51.470;9.894;2023-02-04T12:53:15;101353.00;;;11.69;56.00
25947;BME280;13745;51.470;9.894;2023-02-04T12:56:02;101360.78;;;11.67;56.06
25947;BME280;13745;51.470;9.894;2023-02-04T12:58:48;101364.19;;;11.65;56.26
25947;BME280;13745;51.470;9.894;2023-02-04T13:01:33;101365.00;;;11.59;56.24
25947;BME280;13745;51.470;9.894;2023-02-04T13:04:18;101360.56;;;11.53;56.23
25947;BME280;13745;51.470;9.894;2023-02-04T13:07:03;101360.59;;;11.55;56.44
25947;BME280;13745;51.470;9.894;2023-02-04T13:09:49;101356.25;;;11.52;56.48
25947;BME280;13745;51.470;9.894;2023-02-04T13:12:36;101360.53;;;11.50;56.47
25947;BME280;13745;51.470;9.894;2023-02-04T13:15:21;101368.38;;;11.53;56.54
25947;BME280;13745;51.470;9.894;2023-02-04T13:18:06;101356.59;;;11.78;56.28
25947;BME280;13745;51.470;9.894;2023-02-04T13:20:51;101365.91;;;11.64;56.24
25947;BME280;13745;51.470;9.894;2023-02-04T13:23:36;101375.97;;;11.41;56.15
25947;BME280;13745;51.470;9.894;2023-02-04T13:26:21;101376.41;;;11.16;56.72
25947;BME280;13745;51.470;9.894;2023-02-04T13:29:07;101366.59;;;10.96;56.91
25947;BME280;13745;51.470;9.894;2023-02-04T13:31:52;101376.72;;;10.83;57.20
25947;BME280;13745;51.470;9.894;2023-02-04T13:34:37;101370.84;;;11.46;56.82
25947;BME280;13745;51.470;9.894;2023-02-04T13:37:22;101358.28;;;13.30;55.00
25947;BME280;13745;51.470;9.894;2023-02-04T13:40:09;101342.47;;;15.09;53.01
25947;BME280;13745;51.470;9.894;2023-02-04T13:42:54;101352.03;;;14.78;52.57
25947;BME280;13745;51.470;9.894;2023-02-04T13:45:41;101359.66;;;14.22;53.21
25947;BME280;13745;51.470;9.894;2023-02-04T13:48:30;101367.25;;;13.71;53.60
25947;BME280;13745;51.470;9.894;2023-02-04T13:51:16;101363.59;;;13.45;53.79
25947;BME280;13745;51.470;9.894;2023-02-04T13:54:01;101366.13;;;13.34;54.24
25947;BME280;13745;51.470;9.894;2023-02-04T13:56:46;101360.94;;;13.37;53.96
25947;BME280;13745;51.470;9.894;2023-02-04T13:59:31;101352.41;;;13.60;53.73
25947;BME280;13745;51.470;9.894;2023-02-04T14:02:17;101355.94;;;13.68;53.43
25947;BME280;13745;51.470;9.894;2023-02-04T14:05:04;101361.06;;;13.56;53.59
25947;BME280;13745;51.470;9.894;2023-02-04T14:07:49;101364.91;;;12.99;54.13
25947;BME280;13745;51.470;9.894;2023-02-04T14:10:34;101368.84;;;12.55;54.36
25947;BME280;13745;51.470;9.894;2023-02-04T14:13:19;101372.19;;;12.42;54.20
25947;BME280;13745;51.470;9.894;2023-02-04T14:16:04;101363.03;;;12.05;54.64
25947;BME280;13745;51.470;9.894;2023-02-04T14:18:53;101371.19;;;11.69;55.11
25947;BME280;13745;51.470;9.894;2023-02-04T14:21:38;101377.81;;;11.48;54.97
25947;BME280;13745;51.470;9.894;2023-02-04T14:24:23;101370.75;;;11.41;55.04
25947;BME280;13745;51.470;9.894;2023-02-04T14:27:08;101368.03;;;11.32;55.28
25947;BME280;13745;51.470;9.894;2023-02-04T14:29:54;101372.03;;;11.12;55.14
25947;BME280;13745;51.470;9.894;2023-02-04T14:32:39;101376.94;;;10.95;55.66
25947;BME280;13745;51.470;9.894;2023-02-04T14:35:26;101372.44;;;10.85;56.05
25947;BME280;13745;51.470;9.894;2023-02-04T14:38:11;101379.28;;;10.81;56.23
25947;BME280;13745;51.470;9.894;2023-02-04T14:40:58;101369.63;;;10.74;56.14